• Join FlightAware (Why Join?)
  • Login
  • US Flag 
11:35AM EST


 

Airport Tracker/Info


-or-


 

Live Flight TrackerFlight Track Log ✈ VH-YEN ✈ 24-Sep-2013 ✈ YSCB / CBR - YSCN / CDU

Flight Track Log - Related Links

Times and Time Zones

All times are in EDT time to prevent confusion due to time zone crossing. See the VH-YEN flight status page for this flight to view local times or setup timezone preferences in your user account.

Time Position Orientation Groundspeed Altitude Reporting Facility
EDT Latitude Longitude Course Direction KTS MPH feet Rate Location/Type
09:02PM -35.2861 149.1939 North 104 120 2,400  Level Aus ATC (RADAR)
09:03PM -35.2690 149.1958 North 107 123 2,900 720 Climbing Aus ATC (RADAR)
09:04PM -35.2439 149.2014 10° North 111 128 3,500 600 Climbing Aus ATC (RADAR)
09:04PM -35.2322 149.2108 33° Northeast 119 137 3,700 600 Climbing Aus ATC (RADAR)
09:06PM -35.1999 149.2637 53° Northeast 140 161 4,600 600 Climbing Aus ATC (RADAR)
09:06PM -35.1847 149.2767 35° Northeast 135 155 4,900 600 Climbing Aus ATC (RADAR)
09:06PM -35.1709 149.2864 30° Northeast 136 157 5,200 600 Climbing Aus ATC (RADAR)
09:07PM -35.1515 149.3049 38° Northeast 146 168 5,500 600 Climbing Aus ATC (RADAR)
09:08PM -35.1286 149.3244 35° Northeast 136 157 6,000 600 Climbing Aus ATC (RADAR)
09:08PM -35.1085 149.3388 30° Northeast 140 161 6,300 540 Climbing Aus ATC (RADAR)
09:09PM -35.0818 149.3607 34° Northeast 139 160 6,800 600 Climbing Aus ATC (RADAR)
09:10PM -35.0714 149.3709 39° Northeast 141 162 7,000 480 Climbing Aus ATC (RADAR)
09:11PM -35.0209 149.4061 30° Northeast 137 158 7,700 480 Climbing Aus ATC (RADAR)
09:11PM -35.0087 149.4190 41° Northeast 139 160 8,000 600 Climbing Aus ATC (RADAR)
09:12PM -34.9898 149.4434 47° Northeast 145 167 8,400 720 Climbing Aus ATC (RADAR)
09:13PM -34.9711 149.4587 34° Northeast 138 159 8,900 540 Climbing Aus ATC (RADAR)
09:13PM -34.9489 149.4695 22° Northeast 133 153 9,100 120 Climbing Aus ATC (RADAR)
09:14PM -34.9314 149.4883 42° Northeast 158 182 9,100 -120 Level Aus ATC (RADAR)
09:14PM -34.9072 149.5071 32° Northeast 172 198 9,000 -120 Descending Aus ATC (RADAR)
09:15PM -34.8714 149.5379 35° Northeast 169 194 9,000 -120 Level Aus ATC (RADAR)
09:16PM -34.8430 149.5618 35° Northeast 166 191 8,900 -120 Descending Aus ATC (RADAR)
09:17PM -34.8207 149.5813 36° Northeast 168 193 8,900  Level Aus ATC (RADAR)
09:17PM -34.7895 149.6063 33° Northeast 161 185 8,900  Level Aus ATC (RADAR)
09:18PM -34.7682 149.6239 34° Northeast 158 182 8,900  Level Aus ATC (RADAR)
09:19PM -34.7347 149.6515 34° Northeast 158 182 8,900  Level Aus ATC (RADAR)
09:19PM -34.7256 149.6590 34° Northeast 157 181 8,900 60 Level Aus ATC (RADAR)
09:20PM -34.6833 149.6942 34° Northeast 158 182 9,000 60 Climbing Aus ATC (RADAR)
09:21PM -34.6648 149.7094 34° Northeast 160 184 9,000  Level Aus ATC (RADAR)
09:21PM -34.6526 149.7201 36° Northeast 162 186 9,000  Level Aus ATC (RADAR)
09:22PM -34.6301 149.7389 35° Northeast 166 191 9,000 -120 Level Aus ATC (RADAR)
09:23PM -34.5914 149.7706 34° Northeast 167 192 8,900  Descending Aus ATC (RADAR)
09:23PM -34.5691 149.7889 34° Northeast 165 190 9,000  Climbing Aus ATC (RADAR)
09:24PM -34.5405 149.8126 34° Northeast 163 188 8,900  Descending Aus ATC (RADAR)
09:25PM -34.5160 149.8324 34° Northeast 158 182 9,000  Climbing Aus ATC (RADAR)
09:26PM -34.4758 149.8652 34° Northeast 162 186 9,000  Level Aus ATC (RADAR)
09:26PM -34.4601 149.8784 35° Northeast 163 188 9,000  Level Aus ATC (RADAR)
09:27PM -34.4378 149.8962 33° Northeast 164 189 9,000  Level Aus ATC (RADAR)
09:28PM -34.4068 149.9223 35° Northeast 162 186 9,000  Level Aus ATC (RADAR)
09:28PM -34.3854 149.9393 33° Northeast 157 181 9,000  Level Aus ATC (RADAR)
09:29PM -34.3581 149.9612 33° Northeast 156 180 9,000  Level Aus ATC (RADAR)
09:30PM -34.3335 149.9807 33° Northeast 159 183 9,000 -300 Level Aus ATC (RADAR)
09:31PM -34.2763 150.0293 35° Northeast 166 191 8,400 -540 Descending Aus ATC (RADAR)
09:32PM -34.2600 150.0415 32° Northeast 165 190 8,100 -840 Descending Aus ATC (RADAR)
09:32PM -34.2359 150.0623 36° Northeast 180 207 7,600 -600 Descending Aus ATC (RADAR)
09:33PM -34.2040 150.0890 35° Northeast 184 212 7,300 -480 Descending Aus ATC (RADAR)
09:33PM -34.1784 150.1092 33° Northeast 186 214 7,000 -600 Descending Aus ATC (RADAR)
09:34PM -34.1662 150.1613 74° East 193 222 6,500 -660 Descending Aus ATC (RADAR)
09:35PM -34.1744 150.1879 110° East 195 224 6,200 -600 Descending Aus ATC (RADAR)
09:36PM -34.1724 150.2708 88° East 178 205 5,500 -480 Descending Aus ATC (RADAR)
09:36PM -34.1732 150.2864 94° East 180 207 5,500  Level Aus ATC (RADAR)
09:37PM -34.1713 150.3266 87° East 174 200 5,500 -120 Level Aus ATC (RADAR)
09:38PM -34.1701 150.3761 88° East 156 180 5,400 -120 Descending Aus ATC (RADAR)
09:38PM -34.1695 150.4027 88° East 135 155 5,400 -120 Level Aus ATC (RADAR)
09:39PM -34.1590 150.4340 68° East 117 135 5,300 -480 Descending Aus ATC (RADAR)
09:40PM -34.1484 150.4558 60° Northeast 124 143 4,800 -600 Descending Aus ATC (RADAR)
09:41PM -34.1336 150.4866 60° Northeast 120 138 4,500 -480 Descending Aus ATC (RADAR)
09:41PM -34.1264 150.5010 59° Northeast 118 136 4,200 -720 Descending Aus ATC (RADAR)
09:42PM -34.1166 150.5220 61° Northeast 118 136 3,800 -720 Descending Aus ATC (RADAR)
09:43PM -34.0993 150.5568 59° Northeast 119 137 3,100 -660 Descending Aus ATC (RADAR)
09:43PM -34.0897 150.5779 61° Northeast 119 137 2,800 -780 Descending Aus ATC (RADAR)
09:44PM -34.0764 150.6077 62° Northeast 118 136 2,000 -900 Descending Aus ATC (RADAR)
09:45PM -34.0690 150.6214 57° Northeast 114 131 1,700 -720 Descending Aus ATC (RADAR)
09:46PM -34.0440 150.6722 59° Northeast 87 100 500 -720 Descending Aus ATC (RADAR)
09:47PM -34.0410 150.6799 64° Northeast 76 87 300 -720 Descending Aus ATC (RADAR)
09:47PM -34.0402 150.6817 64° Northeast 76 87 200 -900 Descending Aus ATC (RADAR)